sensor_id;sensor_type;location;lat;lon;timestamp;P1;durP1;ratioP1;P2;durP2;ratioP2
48040;SDS011;33815;48.386;11.738;2024-02-21T00:01:05;6.40;;;3.33;;
48040;SDS011;33815;48.386;11.738;2024-02-21T00:03:31;14.82;;;4.13;;
48040;SDS011;33815;48.386;11.738;2024-02-21T00:05:56;8.52;;;3.50;;
48040;SDS011;33815;48.386;11.738;2024-02-21T00:08:21;10.82;;;4.47;;
48040;SDS011;33815;48.386;11.738;2024-02-21T00:10:47;12.75;;;3.63;;
48040;SDS011;33815;48.386;11.738;2024-02-21T00:13:12;9.93;;;4.38;;
48040;SDS011;33815;48.386;11.738;2024-02-21T00:15:37;4.13;;;3.30;;
48040;SDS011;33815;48.386;11.738;2024-02-21T00:18:03;7.85;;;3.05;;
48040;SDS011;33815;48.386;11.738;2024-02-21T00:20:28;8.98;;;3.30;;
48040;SDS011;33815;48.386;11.738;2024-02-21T00:22:53;6.00;;;3.08;;
48040;SDS011;33815;48.386;11.738;2024-02-21T00:25:19;7.00;;;3.67;;
48040;SDS011;33815;48.386;11.738;2024-02-21T00:27:45;6.82;;;3.15;;
48040;SDS011;33815;48.386;11.738;2024-02-21T00:30:10;9.55;;;3.20;;
48040;SDS011;33815;48.386;11.738;2024-02-21T00:32:36;5.50;;;3.10;;
48040;SDS011;33815;48.386;11.738;2024-02-21T00:35:01;9.23;;;3.92;;
48040;SDS011;33815;48.386;11.738;2024-02-21T00:37:27;8.65;;;2.88;;
48040;SDS011;33815;48.386;11.738;2024-02-21T00:39:53;7.30;;;3.35;;
48040;SDS011;33815;48.386;11.738;2024-02-21T00:42:19;5.63;;;3.00;;
48040;SDS011;33815;48.386;11.738;2024-02-21T00:44:44;7.28;;;3.40;;
48040;SDS011;33815;48.386;11.738;2024-02-21T00:47:10;5.85;;;2.88;;
48040;SDS011;33815;48.386;11.738;2024-02-21T00:49:35;10.68;;;3.17;;
48040;SDS011;33815;48.386;11.738;2024-02-21T00:52:00;7.45;;;3.00;;
48040;SDS011;33815;48.386;11.738;2024-02-21T00:54:26;7.43;;;2.90;;
48040;SDS011;33815;48.386;11.738;2024-02-21T00:56:51;8.23;;;2.83;;
48040;SDS011;33815;48.386;11.738;2024-02-21T00:59:16;11.07;;;3.35;;
48040;SDS011;33815;48.386;11.738;2024-02-21T01:01:42;7.43;;;3.45;;
48040;SDS011;33815;48.386;11.738;2024-02-21T01:04:09;9.75;;;3.17;;
48040;SDS011;33815;48.386;11.738;2024-02-21T01:06:34;9.02;;;3.03;;
48040;SDS011;33815;48.386;11.738;2024-02-21T01:09:00;12.27;;;3.65;;
48040;SDS011;33815;48.386;11.738;2024-02-21T01:11:25;8.57;;;3.72;;
48040;SDS011;33815;48.386;11.738;2024-02-21T01:13:50;7.07;;;2.72;;
48040;SDS011;33815;48.386;11.738;2024-02-21T01:16:16;7.10;;;2.75;;
48040;SDS011;33815;48.386;11.738;2024-02-21T01:18:41;9.15;;;4.25;;
48040;SDS011;33815;48.386;11.738;2024-02-21T01:21:06;7.45;;;3.53;;
48040;SDS011;33815;48.386;11.738;2024-02-21T01:23:32;9.32;;;3.15;;
48040;SDS011;33815;48.386;11.738;2024-02-21T01:26:02;7.65;;;3.05;;
48040;SDS011;33815;48.386;11.738;2024-02-21T01:28:33;7.55;;;2.90;;
48040;SDS011;33815;48.386;11.738;2024-02-21T01:30:59;11.50;;;3.83;;
48040;SDS011;33815;48.386;11.738;2024-02-21T01:33:24;5.75;;;3.05;;
48040;SDS011;33815;48.386;11.738;2024-02-21T01:35:49;7.00;;;3.70;;
48040;SDS011;33815;48.386;11.738;2024-02-21T01:38:15;6.53;;;3.10;;
48040;SDS011;33815;48.386;11.738;2024-02-21T01:40:40;7.78;;;3.08;;
48040;SDS011;33815;48.386;11.738;2024-02-21T01:43:14;11.73;;;3.53;;
48040;SDS011;33815;48.386;11.738;2024-02-21T01:45:41;8.07;;;3.00;;
48040;SDS011;33815;48.386;11.738;2024-02-21T01:48:06;6.85;;;3.28;;
48040;SDS011;33815;48.386;11.738;2024-02-21T01:50:32;10.57;;;2.95;;
48040;SDS011;33815;48.386;11.738;2024-02-21T01:52:58;6.20;;;2.78;;
48040;SDS011;33815;48.386;11.738;2024-02-21T01:55:24;4.32;;;2.38;;
48040;SDS011;33815;48.386;11.738;2024-02-21T01:57:49;5.85;;;2.60;;
48040;SDS011;33815;48.386;11.738;2024-02-21T02:00:15;6.70;;;2.35;;
48040;SDS011;33815;48.386;11.738;2024-02-21T02:02:41;6.55;;;3.22;;
48040;SDS011;33815;48.386;11.738;2024-02-21T02:05:07;4.85;;;2.72;;
48040;SDS011;33815;48.386;11.738;2024-02-21T02:07:33;6.70;;;2.80;;
48040;SDS011;33815;48.386;11.738;2024-02-21T02:09:58;2.85;;;2.38;;
48040;SDS011;33815;48.386;11.738;2024-02-21T02:12:24;11.82;;;3.20;;
48040;SDS011;33815;48.386;11.738;2024-02-21T02:14:59;4.68;;;2.22;;
48040;SDS011;33815;48.386;11.738;2024-02-21T02:17:30;5.25;;;2.30;;
48040;SDS011;33815;48.386;11.738;2024-02-21T02:19:56;6.28;;;2.90;;
48040;SDS011;33815;48.386;11.738;2024-02-21T02:22:28;9.05;;;3.28;;
48040;SDS011;33815;48.386;11.738;2024-02-21T02:24:54;7.63;;;3.63;;
48040;SDS011;33815;48.386;11.738;2024-02-21T02:27:20;6.90;;;3.22;;
48040;SDS011;33815;48.386;11.738;2024-02-21T02:29:47;4.75;;;2.67;;
48040;SDS011;33815;48.386;11.738;2024-02-21T02:32:13;7.63;;;3.22;;
48040;SDS011;33815;48.386;11.738;2024-02-21T02:34:38;13.65;;;2.65;;
48040;SDS011;33815;48.386;11.738;2024-02-21T02:37:03;8.55;;;2.88;;
48040;SDS011;33815;48.386;11.738;2024-02-21T02:39:29;6.45;;;3.20;;
48040;SDS011;33815;48.386;11.738;2024-02-21T02:41:54;8.20;;;2.58;;
48040;SDS011;33815;48.386;11.738;2024-02-21T02:44:19;8.02;;;2.78;;
48040;SDS011;33815;48.386;11.738;2024-02-21T02:46:44;4.97;;;2.87;;
48040;SDS011;33815;48.386;11.738;2024-02-21T02:49:10;8.77;;;2.70;;
48040;SDS011;33815;48.386;11.738;2024-02-21T02:51:35;8.38;;;2.65;;
48040;SDS011;33815;48.386;11.738;2024-02-21T02:54:00;5.30;;;2.45;;
48040;SDS011;33815;48.386;11.738;2024-02-21T02:56:27;4.45;;;2.15;;
48040;SDS011;33815;48.386;11.738;2024-02-21T02:58:52;4.95;;;2.83;;
48040;SDS011;33815;48.386;11.738;2024-02-21T03:01:17;3.42;;;2.22;;
48040;SDS011;33815;48.386;11.738;2024-02-21T03:03:43;2.45;;;2.25;;
48040;SDS011;33815;48.386;11.738;2024-02-21T03:06:10;6.68;;;2.75;;
48040;SDS011;33815;48.386;11.738;2024-02-21T03:08:35;6.18;;;2.65;;
48040;SDS011;33815;48.386;11.738;2024-02-21T03:11:00;8.70;;;3.00;;
48040;SDS011;33815;48.386;11.738;2024-02-21T03:13:26;10.93;;;2.90;;
48040;SDS011;33815;48.386;11.738;2024-02-21T03:15:51;9.02;;;2.97;;
48040;SDS011;33815;48.386;11.738;2024-02-21T03:18:16;13.43;;;2.88;;
48040;SDS011;33815;48.386;11.738;2024-02-21T03:20:42;8.02;;;3.40;;
48040;SDS011;33815;48.386;11.738;2024-02-21T03:23:07;9.65;;;3.33;;
48040;SDS011;33815;48.386;11.738;2024-02-21T03:25:32;6.35;;;2.88;;
48040;SDS011;33815;48.386;11.738;2024-02-21T03:27:58;10.10;;;2.70;;
48040;SDS011;33815;48.386;11.738;2024-02-21T03:30:23;5.07;;;2.67;;
48040;SDS011;33815;48.386;11.738;2024-02-21T03:32:48;3.42;;;2.72;;
48040;SDS011;33815;48.386;11.738;2024-02-21T03:35:14;6.93;;;2.50;;
48040;SDS011;33815;48.386;11.738;2024-02-21T03:37:39;5.05;;;2.67;;
48040;SDS011;33815;48.386;11.738;2024-02-21T03:40:08;4.75;;;2.65;;
48040;SDS011;33815;48.386;11.738;2024-02-21T03:42:34;4.50;;;2.80;;
48040;SDS011;33815;48.386;11.738;2024-02-21T03:44:59;6.28;;;2.60;;
48040;SDS011;33815;48.386;11.738;2024-02-21T03:47:25;3.33;;;2.50;;
48040;SDS011;33815;48.386;11.738;2024-02-21T03:49:50;7.90;;;2.60;;
48040;SDS011;33815;48.386;11.738;2024-02-21T03:52:15;9.00;;;2.47;;
48040;SDS011;33815;48.386;11.738;2024-02-21T03:54:41;4.15;;;2.20;;
48040;SDS011;33815;48.386;11.738;2024-02-21T03:57:07;11.57;;;2.60;;
48040;SDS011;33815;48.386;11.738;2024-02-21T03:59:32;3.47;;;2.25;;
48040;SDS011;33815;48.386;11.738;2024-02-21T04:01:57;8.32;;;3.20;;
48040;SDS011;33815;48.386;11.738;2024-02-21T04:04:23;5.88;;;2.42;;
48040;SDS011;33815;48.386;11.738;2024-02-21T04:06:49;7.10;;;2.42;;
48040;SDS011;33815;48.386;11.738;2024-02-21T04:09:15;6.22;;;2.03;;
48040;SDS011;33815;48.386;11.738;2024-02-21T04:11:41;5.47;;;2.33;;
48040;SDS011;33815;48.386;11.738;2024-02-21T04:14:06;6.43;;;2.42;;
48040;SDS011;33815;48.386;11.738;2024-02-21T04:16:32;7.90;;;2.30;;
48040;SDS011;33815;48.386;11.738;2024-02-21T04:18:57;6.13;;;2.30;;
48040;SDS011;33815;48.386;11.738;2024-02-21T04:21:23;4.80;;;2.15;;
48040;SDS011;33815;48.386;11.738;2024-02-21T04:23:48;8.85;;;2.80;;
48040;SDS011;33815;48.386;11.738;2024-02-21T04:26:13;3.00;;;2.38;;
48040;SDS011;33815;48.386;11.738;2024-02-21T04:28:38;3.58;;;2.78;;
48040;SDS011;33815;48.386;11.738;2024-02-21T04:31:04;5.63;;;2.63;;
48040;SDS011;33815;48.386;11.738;2024-02-21T04:33:29;3.38;;;2.28;;
48040;SDS011;33815;48.386;11.738;2024-02-21T04:35:54;4.05;;;2.40;;
48040;SDS011;33815;48.386;11.738;2024-02-21T04:38:20;6.75;;;2.47;;
48040;SDS011;33815;48.386;11.738;2024-02-21T04:40:45;7.45;;;2.38;;
48040;SDS011;33815;48.386;11.738;2024-02-21T04:43:10;5.13;;;2.38;;
48040;SDS011;33815;48.386;11.738;2024-02-21T04:45:36;5.18;;;2.10;;
48040;SDS011;33815;48.386;11.738;2024-02-21T04:48:01;6.53;;;2.33;;
48040;SDS011;33815;48.386;11.738;2024-02-21T04:50:26;5.13;;;2.20;;
48040;SDS011;33815;48.386;11.738;2024-02-21T04:52:52;4.43;;;2.55;;
48040;SDS011;33815;48.386;11.738;2024-02-21T04:55:17;4.38;;;2.72;;
48040;SDS011;33815;48.386;11.738;2024-02-21T04:57:43;3.17;;;1.98;;
48040;SDS011;33815;48.386;11.738;2024-02-21T05:00:08;3.05;;;2.08;;
48040;SDS011;33815;48.386;11.738;2024-02-21T05:02:34;4.45;;;1.80;;
48040;SDS011;33815;48.386;11.738;2024-02-21T05:04:59;3.22;;;2.20;;
48040;SDS011;33815;48.386;11.738;2024-02-21T05:07:25;3.28;;;2.20;;
48040;SDS011;33815;48.386;11.738;2024-02-21T05:09:50;6.13;;;2.30;;
48040;SDS011;33815;48.386;11.738;2024-02-21T05:12:16;4.22;;;2.40;;
48040;SDS011;33815;48.386;11.738;2024-02-21T05:14:41;4.80;;;2.47;;
48040;SDS011;33815;48.386;11.738;2024-02-21T05:17:06;4.15;;;2.10;;
48040;SDS011;33815;48.386;11.738;2024-02-21T05:19:31;7.18;;;2.28;;
48040;SDS011;33815;48.386;11.738;2024-02-21T05:21:58;3.97;;;2.00;;
48040;SDS011;33815;48.386;11.738;2024-02-21T05:24:24;2.35;;;2.17;;
48040;SDS011;33815;48.386;11.738;2024-02-21T05:26:49;5.38;;;2.25;;
48040;SDS011;33815;48.386;11.738;2024-02-21T05:29:14;2.28;;;1.92;;
48040;SDS011;33815;48.386;11.738;2024-02-21T05:31:54;2.90;;;2.00;;
48040;SDS011;33815;48.386;11.738;2024-02-21T05:34:23;4.78;;;2.20;;
48040;SDS011;33815;48.386;11.738;2024-02-21T05:36:48;2.75;;;2.28;;
48040;SDS011;33815;48.386;11.738;2024-02-21T05:39:14;4.55;;;2.30;;
48040;SDS011;33815;48.386;11.738;2024-02-21T05:41:41;8.18;;;2.30;;
48040;SDS011;33815;48.386;11.738;2024-02-21T05:44:07;3.85;;;2.80;;
48040;SDS011;33815;48.386;11.738;2024-02-21T05:46:32;4.78;;;2.35;;
48040;SDS011;33815;48.386;11.738;2024-02-21T05:48:57;6.03;;;2.30;;
48040;SDS011;33815;48.386;11.738;2024-02-21T05:51:22;4.97;;;2.13;;
48040;SDS011;33815;48.386;11.738;2024-02-21T05:53:48;7.53;;;2.60;;
48040;SDS011;33815;48.386;11.738;2024-02-21T05:56:13;6.10;;;2.60;;
48040;SDS011;33815;48.386;11.738;2024-02-21T05:58:39;6.20;;;2.72;;
48040;SDS011;33815;48.386;11.738;2024-02-21T06:01:05;4.43;;;2.10;;
48040;SDS011;33815;48.386;11.738;2024-02-21T06:03:31;9.30;;;2.78;;
48040;SDS011;33815;48.386;11.738;2024-02-21T06:05:57;5.18;;;2.30;;
48040;SDS011;33815;48.386;11.738;2024-02-21T06:08:22;8.30;;;2.53;;
48040;SDS011;33815;48.386;11.738;2024-02-21T06:10:48;3.17;;;2.88;;
48040;SDS011;33815;48.386;11.738;2024-02-21T06:13:13;6.00;;;2.25;;
48040;SDS011;33815;48.386;11.738;2024-02-21T06:15:39;3.00;;;2.45;;
48040;SDS011;33815;48.386;11.738;2024-02-21T06:18:04;5.55;;;2.70;;
48040;SDS011;33815;48.386;11.738;2024-02-21T06:20:29;4.57;;;2.28;;
48040;SDS011;33815;48.386;11.738;2024-02-21T06:22:55;10.25;;;2.63;;
48040;SDS011;33815;48.386;11.738;2024-02-21T06:25:20;8.35;;;3.15;;
48040;SDS011;33815;48.386;11.738;2024-02-21T06:27:45;5.05;;;3.20;;
48040;SDS011;33815;48.386;11.738;2024-02-21T06:30:10;4.35;;;2.28;;
48040;SDS011;33815;48.386;11.738;2024-02-21T06:32:36;4.47;;;2.05;;
48040;SDS011;33815;48.386;11.738;2024-02-21T06:35:01;2.25;;;2.05;;
48040;SDS011;33815;48.386;11.738;2024-02-21T06:37:27;4.05;;;2.35;;
48040;SDS011;33815;48.386;11.738;2024-02-21T06:39:52;8.30;;;2.20;;
48040;SDS011;33815;48.386;11.738;2024-02-21T06:42:18;3.67;;;2.03;;
48040;SDS011;33815;48.386;11.738;2024-02-21T06:44:44;5.18;;;2.42;;
48040;SDS011;33815;48.386;11.738;2024-02-21T06:47:09;3.65;;;2.10;;
48040;SDS011;33815;48.386;11.738;2024-02-21T06:49:35;5.07;;;2.75;;
48040;SDS011;33815;48.386;11.738;2024-02-21T06:52:02;10.43;;;2.65;;
48040;SDS011;33815;48.386;11.738;2024-02-21T06:54:29;5.72;;;2.25;;
48040;SDS011;33815;48.386;11.738;2024-02-21T06:56:54;5.22;;;1.88;;
48040;SDS011;33815;48.386;11.738;2024-02-21T06:59:19;5.00;;;2.58;;
48040;SDS011;33815;48.386;11.738;2024-02-21T07:01:48;5.88;;;2.28;;
48040;SDS011;33815;48.386;11.738;2024-02-21T07:04:14;6.53;;;2.60;;
48040;SDS011;33815;48.386;11.738;2024-02-21T07:06:39;6.70;;;2.35;;
48040;SDS011;33815;48.386;11.738;2024-02-21T07:09:05;9.35;;;2.30;;
48040;SDS011;33815;48.386;11.738;2024-02-21T07:11:30;2.88;;;1.80;;
48040;SDS011;33815;48.386;11.738;2024-02-21T07:13:55;5.53;;;2.13;;
48040;SDS011;33815;48.386;11.738;2024-02-21T07:16:21;3.22;;;2.08;;
48040;SDS011;33815;48.386;11.738;2024-02-21T07:18:46;6.85;;;2.45;;
48040;SDS011;33815;48.386;11.738;2024-02-21T07:21:11;2.50;;;1.90;;
48040;SDS011;33815;48.386;11.738;2024-02-21T07:23:40;4.95;;;1.70;;
48040;SDS011;33815;48.386;11.738;2024-02-21T07:26:06;6.28;;;2.22;;
48040;SDS011;33815;48.386;11.738;2024-02-21T07:28:31;3.60;;;1.83;;
48040;SDS011;33815;48.386;11.738;2024-02-21T07:30:58;1.98;;;1.88;;
48040;SDS011;33815;48.386;11.738;2024-02-21T07:33:24;2.65;;;1.70;;
48040;SDS011;33815;48.386;11.738;2024-02-21T07:35:49;2.75;;;1.85;;
48040;SDS011;33815;48.386;11.738;2024-02-21T07:38:14;3.40;;;1.90;;
48040;SDS011;33815;48.386;11.738;2024-02-21T07:40:40;3.22;;;1.63;;
48040;SDS011;33815;48.386;11.738;2024-02-21T07:43:05;4.47;;;2.05;;
48040;SDS011;33815;48.386;11.738;2024-02-21T07:45:30;7.70;;;2.83;;
48040;SDS011;33815;48.386;11.738;2024-02-21T07:47:56;5.35;;;1.92;;
48040;SDS011;33815;48.386;11.738;2024-02-21T07:50:21;2.38;;;2.17;;
48040;SDS011;33815;48.386;11.738;2024-02-21T07:52:46;5.05;;;1.40;;
48040;SDS011;33815;48.386;11.738;2024-02-21T07:55:12;1.77;;;1.67;;
48040;SDS011;33815;48.386;11.738;2024-02-21T07:57:37;2.17;;;1.60;;
48040;SDS011;33815;48.386;11.738;2024-02-21T08:00:03;3.03;;;1.90;;
48040;SDS011;33815;48.386;11.738;2024-02-21T08:02:30;4.85;;;1.90;;
48040;SDS011;33815;48.386;11.738;2024-02-21T08:04:56;7.03;;;2.63;;
48040;SDS011;33815;48.386;11.738;2024-02-21T08:07:24;2.03;;;1.70;;
48040;SDS011;33815;48.386;11.738;2024-02-21T08:09:49;1.65;;;1.55;;
48040;SDS011;33815;48.386;11.738;2024-02-21T08:12:14;6.47;;;2.80;;
48040;SDS011;33815;48.386;11.738;2024-02-21T08:14:40;4.22;;;1.60;;
48040;SDS011;33815;48.386;11.738;2024-02-21T08:17:05;4.07;;;1.70;;
48040;SDS011;33815;48.386;11.738;2024-02-21T08:19:30;6.00;;;1.50;;
48040;SDS011;33815;48.386;11.738;2024-02-21T08:21:56;2.88;;;1.70;;
48040;SDS011;33815;48.386;11.738;2024-02-21T08:24:21;2.25;;;1.52;;
48040;SDS011;33815;48.386;11.738;2024-02-21T08:26:47;2.78;;;1.55;;
48040;SDS011;33815;48.386;11.738;2024-02-21T08:29:13;2.28;;;1.48;;
48040;SDS011;33815;48.386;11.738;2024-02-21T08:31:38;3.23;;;1.43;;
48040;SDS011;33815;48.386;11.738;2024-02-21T08:34:03;1.38;;;1.27;;
48040;SDS011;33815;48.386;11.738;2024-02-21T08:36:29;6.57;;;3.10;;
48040;SDS011;33815;48.386;11.738;2024-02-21T08:38:55;2.70;;;1.77;;
48040;SDS011;33815;48.386;11.738;2024-02-21T08:41:21;2.05;;;1.40;;
48040;SDS011;33815;48.386;11.738;2024-02-21T08:43:48;2.33;;;1.23;;
48040;SDS011;33815;48.386;11.738;2024-02-21T08:46:14;1.50;;;1.40;;
48040;SDS011;33815;48.386;11.738;2024-02-21T08:48:39;2.03;;;1.77;;
48040;SDS011;33815;48.386;11.738;2024-02-21T08:51:04;4.95;;;1.63;;
48040;SDS011;33815;48.386;11.738;2024-02-21T08:53:30;4.65;;;1.92;;
48040;SDS011;33815;48.386;11.738;2024-02-21T08:55:56;2.40;;;1.52;;
48040;SDS011;33815;48.386;11.738;2024-02-21T08:58:21;1.90;;;1.57;;
48040;SDS011;33815;48.386;11.738;2024-02-21T09:00:48;4.55;;;1.60;;
48040;SDS011;33815;48.386;11.738;2024-02-21T09:03:13;4.35;;;1.10;;
48040;SDS011;33815;48.386;11.738;2024-02-21T09:05:39;1.30;;;1.20;;
48040;SDS011;33815;48.386;11.738;2024-02-21T09:08:04;3.45;;;1.05;;
48040;SDS011;33815;48.386;11.738;2024-02-21T09:10:30;2.80;;;1.40;;
48040;SDS011;33815;48.386;11.738;2024-02-21T09:12:56;1.65;;;0.95;;
48040;SDS011;33815;48.386;11.738;2024-02-21T09:15:21;4.00;;;1.17;;
48040;SDS011;33815;48.386;11.738;2024-02-21T09:17:46;3.25;;;2.05;;
48040;SDS011;33815;48.386;11.738;2024-02-21T09:20:12;2.58;;;1.30;;
48040;SDS011;33815;48.386;11.738;2024-02-21T09:22:38;2.17;;;1.10;;
48040;SDS011;33815;48.386;11.738;2024-02-21T09:25:04;1.38;;;1.08;;
48040;SDS011;33815;48.386;11.738;2024-02-21T09:27:30;1.60;;;1.00;;
48040;SDS011;33815;48.386;11.738;2024-02-21T09:29:56;1.60;;;0.87;;
48040;SDS011;33815;48.386;11.738;2024-02-21T09:32:21;4.88;;;0.85;;
48040;SDS011;33815;48.386;11.738;2024-02-21T09:34:46;1.77;;;1.33;;
48040;SDS011;33815;48.386;11.738;2024-02-21T09:37:12;4.57;;;1.13;;
48040;SDS011;33815;48.386;11.738;2024-02-21T09:39:37;2.80;;;1.10;;
48040;SDS011;33815;48.386;11.738;2024-02-21T09:42:06;3.35;;;1.00;;
48040;SDS011;33815;48.386;11.738;2024-02-21T09:44:36;1.65;;;0.95;;
48040;SDS011;33815;48.386;11.738;2024-02-21T09:47:17;1.20;;;0.98;;
48040;SDS011;33815;48.386;11.738;2024-02-21T09:49:47;3.00;;;1.00;;
48040;SDS011;33815;48.386;11.738;2024-02-21T09:52:12;1.75;;;1.05;;
48040;SDS011;33815;48.386;11.738;2024-02-21T09:54:40;1.90;;;0.90;;
48040;SDS011;33815;48.386;11.738;2024-02-21T09:57:09;1.60;;;0.73;;
48040;SDS011;33815;48.386;11.738;2024-02-21T09:59:36;0.98;;;0.90;;
48040;SDS011;33815;48.386;11.738;2024-02-21T10:02:02;4.18;;;1.40;;
48040;SDS011;33815;48.386;11.738;2024-02-21T10:04:28;1.13;;;0.95;;
48040;SDS011;33815;48.386;11.738;2024-02-21T10:06:54;2.35;;;1.10;;
48040;SDS011;33815;48.386;11.738;2024-02-21T10:09:20;2.53;;;1.13;;
48040;SDS011;33815;48.386;11.738;2024-02-21T10:11:50;1.30;;;1.20;;
48040;SDS011;33815;48.386;11.738;2024-02-21T10:14:16;8.10;;;1.42;;
48040;SDS011;33815;48.386;11.738;2024-02-21T10:16:41;3.10;;;0.88;;
48040;SDS011;33815;48.386;11.738;2024-02-21T10:19:15;2.72;;;1.10;;
48040;SDS011;33815;48.386;11.738;2024-02-21T10:21:41;1.83;;;0.98;;
48040;SDS011;33815;48.386;11.738;2024-02-21T10:24:07;2.00;;;1.03;;
48040;SDS011;33815;48.386;11.738;2024-02-21T10:26:32;1.42;;;1.08;;
48040;SDS011;33815;48.386;11.738;2024-02-21T10:28:57;4.43;;;1.10;;
48040;SDS011;33815;48.386;11.738;2024-02-21T10:31:29;2.10;;;1.15;;
48040;SDS011;33815;48.386;11.738;2024-02-21T10:33:58;1.20;;;0.95;;
48040;SDS011;33815;48.386;11.738;2024-02-21T10:36:24;1.13;;;0.88;;
48040;SDS011;33815;48.386;11.738;2024-02-21T10:38:50;1.85;;;1.15;;
48040;SDS011;33815;48.386;11.738;2024-02-21T10:41:16;3.78;;;1.02;;
48040;SDS011;33815;48.386;11.738;2024-02-21T10:43:46;2.38;;;1.20;;
48040;SDS011;33815;48.386;11.738;2024-02-21T10:46:14;1.80;;;0.82;;
48040;SDS011;33815;48.386;11.738;2024-02-21T10:48:45;2.13;;;0.90;;
48040;SDS011;33815;48.386;11.738;2024-02-21T10:51:15;6.05;;;1.10;;
48040;SDS011;33815;48.386;11.738;2024-02-21T10:58:54;1.58;;;0.85;;
48040;SDS011;33815;48.386;11.738;2024-02-21T11:01:25;3.33;;;0.80;;
48040;SDS011;33815;48.386;11.738;2024-02-21T11:03:55;1.63;;;0.70;;
48040;SDS011;33815;48.386;11.738;2024-02-21T11:06:22;2.85;;;1.33;;
48040;SDS011;33815;48.386;11.738;2024-02-21T11:08:48;1.90;;;0.90;;
48040;SDS011;33815;48.386;11.738;2024-02-21T11:11:28;3.20;;;1.40;;
48040;SDS011;33815;48.386;11.738;2024-02-21T11:14:03;2.15;;;1.05;;
48040;SDS011;33815;48.386;11.738;2024-02-21T11:16:38;1.90;;;0.80;;
48040;SDS011;33815;48.386;11.738;2024-02-21T11:19:08;1.80;;;1.17;;
48040;SDS011;33815;48.386;11.738;2024-02-21T11:21:43;2.42;;;0.93;;
48040;SDS011;33815;48.386;11.738;2024-02-21T11:24:08;2.65;;;1.40;;
48040;SDS011;33815;48.386;11.738;2024-02-21T11:26:36;1.92;;;0.80;;
48040;SDS011;33815;48.386;11.738;2024-02-21T11:29:02;1.85;;;0.90;;
48040;SDS011;33815;48.386;11.738;2024-02-21T11:31:39;2.65;;;1.10;;
48040;SDS011;33815;48.386;11.738;2024-02-21T11:34:08;2.70;;;0.50;;
48040;SDS011;33815;48.386;11.738;2024-02-21T11:36:36;2.47;;;1.00;;
48040;SDS011;33815;48.386;11.738;2024-02-21T11:41:37;1.50;;;0.73;;
48040;SDS011;33815;48.386;11.738;2024-02-21T11:44:03;1.63;;;0.70;;
48040;SDS011;33815;48.386;11.738;2024-02-21T11:46:28;2.92;;;1.02;;
48040;SDS011;33815;48.386;11.738;2024-02-21T11:48:54;1.35;;;0.90;;
48040;SDS011;33815;48.386;11.738;2024-02-21T11:51:25;1.15;;;0.70;;
48040;SDS011;33815;48.386;11.738;2024-02-21T11:53:52;1.90;;;0.63;;
48040;SDS011;33815;48.386;11.738;2024-02-21T11:56:18;0.93;;;0.70;;
48040;SDS011;33815;48.386;11.738;2024-02-21T11:58:44;0.77;;;0.77;;
48040;SDS011;33815;48.386;11.738;2024-02-21T12:01:11;1.98;;;0.80;;
48040;SDS011;33815;48.386;11.738;2024-02-21T12:03:36;2.33;;;0.80;;
48040;SDS011;33815;48.386;11.738;2024-02-21T12:06:01;1.23;;;1.00;;
48040;SDS011;33815;48.386;11.738;2024-02-21T12:08:40;1.35;;;0.70;;
48040;SDS011;33815;48.386;11.738;2024-02-21T12:11:15;3.63;;;0.93;;
48040;SDS011;33815;48.386;11.738;2024-02-21T12:13:44;2.63;;;1.10;;
48040;SDS011;33815;48.386;11.738;2024-02-21T12:16:10;2.28;;;0.90;;
48040;SDS011;33815;48.386;11.738;2024-02-21T12:18:35;2.20;;;1.08;;
48040;SDS011;33815;48.386;11.738;2024-02-21T12:21:01;1.67;;;1.00;;
48040;SDS011;33815;48.386;11.738;2024-02-21T12:23:26;4.03;;;1.00;;
48040;SDS011;33815;48.386;11.738;2024-02-21T12:25:52;1.27;;;0.88;;
48040;SDS011;33815;48.386;11.738;2024-02-21T12:28:19;2.13;;;0.90;;
48040;SDS011;33815;48.386;11.738;2024-02-21T12:30:44;4.93;;;1.15;;
48040;SDS011;33815;48.386;11.738;2024-02-21T12:33:10;2.25;;;1.27;;
48040;SDS011;33815;48.386;11.738;2024-02-21T12:35:35;2.30;;;1.20;;
48040;SDS011;33815;48.386;11.738;2024-02-21T12:38:00;2.67;;;1.27;;
48040;SDS011;33815;48.386;11.738;2024-02-21T12:40:26;5.45;;;1.05;;
48040;SDS011;33815;48.386;11.738;2024-02-21T12:42:57;1.52;;;0.88;;
48040;SDS011;33815;48.386;11.738;2024-02-21T12:45:23;1.60;;;0.90;;
48040;SDS011;33815;48.386;11.738;2024-02-21T12:47:48;1.07;;;0.73;;
48040;SDS011;33815;48.386;11.738;2024-02-21T12:50:13;4.03;;;0.93;;
48040;SDS011;33815;48.386;11.738;2024-02-21T12:52:40;4.35;;;0.85;;
48040;SDS011;33815;48.386;11.738;2024-02-21T12:55:05;1.73;;;0.65;;
48040;SDS011;33815;48.386;11.738;2024-02-21T12:57:31;0.73;;;0.50;;
48040;SDS011;33815;48.386;11.738;2024-02-21T12:59:56;0.43;;;0.43;;
48040;SDS011;33815;48.386;11.738;2024-02-21T13:02:21;2.97;;;0.73;;
48040;SDS011;33815;48.386;11.738;2024-02-21T13:04:47;1.13;;;0.60;;
48040;SDS011;33815;48.386;11.738;2024-02-21T13:07:12;0.93;;;0.60;;
48040;SDS011;33815;48.386;11.738;2024-02-21T13:09:37;0.50;;;0.50;;
48040;SDS011;33815;48.386;11.738;2024-02-21T13:12:03;0.77;;;0.47;;
48040;SDS011;33815;48.386;11.738;2024-02-21T13:14:28;0.77;;;0.30;;
48040;SDS011;33815;48.386;11.738;2024-02-21T13:16:53;0.90;;;0.65;;
48040;SDS011;33815;48.386;11.738;2024-02-21T13:19:19;0.40;;;0.40;;
48040;SDS011;33815;48.386;11.738;2024-02-21T13:21:44;0.50;;;0.50;;
48040;SDS011;33815;48.386;11.738;2024-02-21T13:24:09;0.37;;;0.37;;
48040;SDS011;33815;48.386;11.738;2024-02-21T13:26:34;0.70;;;0.70;;
48040;SDS011;33815;48.386;11.738;2024-02-21T13:29:00;0.90;;;0.50;;
48040;SDS011;33815;48.386;11.738;2024-02-21T13:31:25;0.30;;;0.30;;
48040;SDS011;33815;48.386;11.738;2024-02-21T13:33:50;0.80;;;0.57;;
48040;SDS011;33815;48.386;11.738;2024-02-21T13:36:17;0.90;;;0.38;;
48040;SDS011;33815;48.386;11.738;2024-02-21T13:38:43;0.85;;;0.50;;
48040;SDS011;33815;48.386;11.738;2024-02-21T13:41:08;1.55;;;0.80;;
48040;SDS011;33815;48.386;11.738;2024-02-21T13:43:33;0.65;;;0.32;;
48040;SDS011;33815;48.386;11.738;2024-02-21T13:46:00;0.63;;;0.63;;
48040;SDS011;33815;48.386;11.738;2024-02-21T13:48:27;0.40;;;0.40;;
48040;SDS011;33815;48.386;11.738;2024-02-21T13:50:54;0.82;;;0.40;;
48040;SDS011;33815;48.386;11.738;2024-02-21T13:53:19;4.07;;;0.77;;
48040;SDS011;33815;48.386;11.738;2024-02-21T13:55:45;0.55;;;0.55;;
48040;SDS011;33815;48.386;11.738;2024-02-21T13:58:11;2.20;;;0.75;;
48040;SDS011;33815;48.386;11.738;2024-02-21T14:00:36;0.40;;;0.40;;
48040;SDS011;33815;48.386;11.738;2024-02-21T14:03:02;2.05;;;0.73;;
48040;SDS011;33815;48.386;11.738;2024-02-21T14:05:27;0.80;;;0.30;;
48040;SDS011;33815;48.386;11.738;2024-02-21T14:07:52;1.17;;;0.55;;
48040;SDS011;33815;48.386;11.738;2024-02-21T14:10:19;1.33;;;0.80;;
48040;SDS011;33815;48.386;11.738;2024-02-21T14:12:48;0.52;;;0.52;;
48040;SDS011;33815;48.386;11.738;2024-02-21T14:15:14;2.10;;;0.70;;
48040;SDS011;33815;48.386;11.738;2024-02-21T14:17:39;0.90;;;0.45;;
48040;SDS011;33815;48.386;11.738;2024-02-21T14:20:05;0.68;;;0.68;;
48040;SDS011;33815;48.386;11.738;2024-02-21T14:22:32;0.93;;;0.40;;
48040;SDS011;33815;48.386;11.738;2024-02-21T14:24:58;0.60;;;0.47;;
48040;SDS011;33815;48.386;11.738;2024-02-21T14:27:23;0.32;;;0.32;;
48040;SDS011;33815;48.386;11.738;2024-02-21T14:29:48;0.90;;;0.50;;
48040;SDS011;33815;48.386;11.738;2024-02-21T14:32:14;0.40;;;0.40;;
48040;SDS011;33815;48.386;11.738;2024-02-21T14:34:39;0.90;;;0.60;;